Time;durP1;ratioP1;P1;durP2;ratioP2;P2;SDS_P1;SDS_P2;PMS_P1;PMS_P2;Temp;Humidity;BMP_temperature;BMP_pressure;BME280_temperature;BME280_humidity;BME280_pressure;Samples;Min_cycle;Max_cycle;Signal;HPM_P1;HPM_P2
2022/09/28 00:02:08;;;;;;;27.52;22.85;;;13.70;99.90;;;;;;5076580;28;20231;-83
2022/09/28 00:04:58;;;;;;;31.05;24.23;;;13.60;99.90;;;;;;5079535;28;20234;-85
2022/09/28 00:07:46;;;;;;;26.05;20.98;;;13.60;99.90;;;;;;5076852;28;20216;-85
2022/09/28 00:10:35;;;;;;;24.58;20.35;;;13.50;99.90;;;;;;5078578;28;20228;-82
2022/09/28 00:13:24;;;;;;;18.65;16.60;;;13.50;99.90;;;;;;5078437;28;20223;-82
2022/09/28 00:16:15;;;;;;;20.95;17.42;;;13.40;99.90;;;;;;5079960;28;20306;-82
2022/09/28 00:19:05;;;;;;;20.33;17.05;;;13.40;99.90;;;;;;5077561;28;20231;-81
2022/09/28 00:21:55;;;;;;;18.52;15.40;;;13.40;99.90;;;;;;5069800;28;20283;-82
2022/09/28 00:24:43;;;;;;;19.05;15.65;;;13.50;99.90;;;;;;5080119;28;20280;-82
2022/09/28 00:27:33;;;;;;;17.98;15.27;;;13.40;99.90;;;;;;5077307;28;20698;-83
2022/09/28 00:30:21;;;;;;;16.83;14.45;;;13.40;99.90;;;;;;5078419;28;20304;-81
2022/09/28 00:33:26;;;;;;;17.13;13.65;;;13.40;99.90;;;;;;5063921;28;20280;-82
2022/09/28 00:36:16;;;;;;;15.77;12.50;;;13.40;99.90;;;;;;5073287;28;20696;-82
2022/09/28 00:39:11;;;;;;;15.50;11.30;;;13.40;99.90;;;;;;5076374;28;20223;-83
2022/09/28 00:42:02;;;;;;;12.68;9.85;;;13.40;99.90;;;;;;5064322;28;20223;-82
2022/09/28 00:44:55;;;;;;;14.57;10.05;;;13.40;99.90;;;;;;5077962;28;20801;-83
2022/09/28 00:47:50;;;;;;;12.95;8.80;;;13.30;99.90;;;;;;5077659;28;20234;-83
2022/09/28 00:50:42;;;;;;;8.45;7.18;;;13.20;99.90;;;;;;5064129;28;20326;-83
2022/09/28 00:53:34;;;;;;;8.75;6.72;;;13.20;99.90;;;;;;5063080;28;20274;-82
2022/09/28 00:56:29;;;;;;;8.82;7.00;;;13.10;99.90;;;;;;5079463;28;20219;-82
2022/09/28 00:59:25;;;;;;;8.07;6.53;;;13.20;99.90;;;;;;5077882;28;20265;-82
2022/09/28 01:02:16;;;;;;;11.63;6.00;;;13.10;99.90;;;;;;5082955;28;20234;-82
2022/09/28 01:05:08;;;;;;;9.95;6.30;;;13.10;99.90;;;;;;5081686;28;20284;-84
2022/09/28 01:07:58;;;;;;;9.23;6.00;;;13.10;99.90;;;;;;5070032;28;20866;-82
2022/09/28 01:10:48;;;;;;;8.52;6.43;;;13.10;99.90;;;;;;5067872;28;20230;-84
2022/09/28 01:13:42;;;;;;;9.40;5.85;;;13.10;99.90;;;;;;5079985;28;20226;-81
2022/09/28 01:16:41;;;;;;;8.07;5.40;;;13.00;99.90;;;;;;5069007;28;20224;-83
2022/09/28 01:20:16;;;;;;;6.05;5.00;;;13.00;99.90;;;;;;5082379;28;20224;-82
2022/09/28 01:23:31;;;;;;;8.73;5.15;;;12.90;99.90;;;;;;5077012;28;20234;-81
2022/09/28 01:26:45;;;;;;;5.93;4.70;;;12.90;99.90;;;;;;5076763;28;20228;-82
2022/09/28 01:29:52;;;;;;;5.78;4.82;;;12.90;99.90;;;;;;5076945;28;20673;-82
2022/09/28 01:32:50;;;;;;;5.93;4.47;;;12.90;99.90;;;;;;5081038;28;20515;-82
2022/09/28 01:35:43;;;;;;;5.10;4.35;;;12.80;99.90;;;;;;5064867;28;20239;-82
2022/09/28 01:38:36;;;;;;;6.22;4.53;;;12.90;99.90;;;;;;5066012;28;20227;-83
2022/09/28 01:41:29;;;;;;;6.35;4.22;;;12.90;99.90;;;;;;5068564;28;20230;-83
2022/09/28 01:44:21;;;;;;;5.07;4.20;;;12.80;99.90;;;;;;5081394;28;20241;-83
2022/09/28 01:47:13;;;;;;;6.93;4.40;;;12.90;99.90;;;;;;5081243;28;20696;-83
2022/09/28 01:50:06;;;;;;;8.32;4.25;;;12.80;99.90;;;;;;5067071;28;20223;-81
2022/09/28 01:53:11;;;;;;;5.88;4.10;;;12.80;99.90;;;;;;5079763;28;25256;-85
2022/09/28 01:56:06;;;;;;;7.88;4.65;;;12.90;99.90;;;;;;5086149;28;20223;-87
2022/09/28 01:59:00;;;;;;;5.22;3.92;;;12.90;99.90;;;;;;5065345;28;20215;-85
2022/09/28 02:01:55;;;;;;;5.80;4.25;;;12.90;99.90;;;;;;5065833;28;20215;-85
2022/09/28 02:04:47;;;;;;;5.97;4.10;;;12.90;99.90;;;;;;5081281;28;20258;-86
2022/09/28 02:07:41;;;;;;;5.90;3.92;;;13.00;99.90;;;;;;5082344;28;20220;-87
2022/09/28 02:10:33;;;;;;;6.25;3.40;;;13.00;99.90;;;;;;5082093;28;20226;-87
2022/09/28 02:13:27;;;;;;;4.70;3.17;;;13.00;99.90;;;;;;5080438;28;20513;-86
2022/09/28 02:16:22;;;;;;;3.78;3.22;;;13.00;99.90;;;;;;5084438;28;20219;-85
2022/09/28 02:19:16;;;;;;;7.80;3.50;;;12.80;99.90;;;;;;5088629;28;20234;-86
2022/09/28 02:22:21;;;;;;;5.45;3.15;;;12.90;99.90;;;;;;5084605;28;20231;-86
2022/09/28 02:25:18;;;;;;;4.13;3.60;;;12.90;99.90;;;;;;5089299;28;20223;-87
2022/09/28 02:28:09;;;;;;;5.28;2.90;;;12.90;99.90;;;;;;5080070;28;20223;-88
2022/09/28 02:30:58;;;;;;;5.75;3.55;;;12.90;99.90;;;;;;5086289;28;20219;-86
2022/09/28 02:33:49;;;;;;;5.38;3.47;;;12.90;99.90;;;;;;5091349;28;20224;-89
2022/09/28 02:36:39;;;;;;;4.30;3.47;;;12.90;99.90;;;;;;5076539;28;20784;-88
2022/09/28 02:39:28;;;;;;;5.70;3.58;;;12.90;99.90;;;;;;5094915;28;20747;-87
2022/09/28 02:42:22;;;;;;;6.55;3.60;;;12.90;99.90;;;;;;5086797;28;20682;-87
2022/09/28 02:45:22;;;;;;;4.35;3.67;;;12.90;99.90;;;;;;5087714;28;20219;-88
2022/09/28 02:48:21;;;;;;;5.55;3.60;;;12.90;99.90;;;;;;5085544;28;20228;-87
2022/09/28 02:51:36;;;;;;;4.45;3.33;;;12.90;99.90;;;;;;5085751;28;20251;-88
2022/09/28 02:54:47;;;;;;;4.55;3.72;;;12.90;99.90;;;;;;5091312;28;20220;-85
2022/09/28 02:57:45;;;;;;;4.97;3.40;;;12.80;99.90;;;;;;5071731;28;20707;-88
2022/09/28 03:00:40;;;;;;;4.85;4.03;;;12.80;99.90;;;;;;5091011;28;20211;-87
2022/09/28 03:03:40;;;;;;;4.68;3.90;;;12.80;99.90;;;;;;5089566;28;20585;-88
2022/09/28 03:06:37;;;;;;;4.45;3.30;;;12.80;99.90;;;;;;5086714;28;20219;-86
2022/09/28 03:09:32;;;;;;;4.55;3.78;;;12.80;99.90;;;;;;5085979;28;20223;-88
2022/09/28 03:12:24;;;;;;;6.88;3.95;;;12.70;99.90;;;;;;5072911;28;20682;-88
2022/09/28 03:15:20;;;;;;;5.13;3.83;;;12.70;99.90;;;;;;5088478;28;20582;-88
2022/09/28 03:18:08;;;;;;;5.30;4.35;;;12.60;99.90;;;;;;5072472;28;20225;-87
2022/09/28 03:20:58;;;;;;;5.10;4.40;;;12.60;99.90;;;;;;5084301;28;20306;-87
2022/09/28 03:23:47;;;;;;;7.18;5.55;;;12.60;99.90;;;;;;5075027;28;20223;-87
2022/09/28 03:26:37;;;;;;;7.97;5.75;;;12.50;99.90;;;;;;5070911;28;20223;-87
2022/09/28 03:29:30;;;;;;;7.22;5.60;;;12.60;99.90;;;;;;5084361;28;20287;-89
2022/09/28 03:32:23;;;;;;;8.23;6.10;;;12.60;99.90;;;;;;5063345;28;20471;-86
2022/09/28 03:35:11;;;;;;;9.05;6.35;;;12.60;99.90;;;;;;5068576;28;20369;-86
2022/09/28 03:38:00;;;;;;;6.93;6.18;;;12.60;99.90;;;;;;5081645;28;20227;-86
2022/09/28 03:40:54;;;;;;;7.95;6.75;;;12.60;99.90;;;;;;5081435;28;20352;-88
2022/09/28 03:43:43;;;;;;;11.60;7.15;;;12.60;99.90;;;;;;5080780;28;20228;-87
2022/09/28 03:46:35;;;;;;;9.18;6.97;;;12.70;99.90;;;;;;5071001;28;20227;-87
2022/09/28 03:49:27;;;;;;;11.38;7.63;;;12.70;99.90;;;;;;5085664;28;20223;-88
2022/09/28 03:52:16;;;;;;;10.00;8.20;;;12.70;99.90;;;;;;5084259;28;20935;-87
2022/09/28 03:55:05;;;;;;;9.07;8.00;;;12.70;99.90;;;;;;5082824;28;20594;-88
2022/09/28 03:57:55;;;;;;;9.95;8.50;;;12.70;99.90;;;;;;5071503;28;20227;-87
2022/09/28 04:00:43;;;;;;;11.57;8.93;;;12.70;99.90;;;;;;5067160;28;20250;-87
2022/09/28 04:03:33;;;;;;;11.93;9.77;;;12.80;99.90;;;;;;5082831;28;20868;-87
2022/09/28 04:06:22;;;;;;;11.73;9.95;;;12.80;99.90;;;;;;5081297;28;20227;-88
2022/09/28 04:09:11;;;;;;;11.68;9.82;;;12.80;99.90;;;;;;5081193;28;20219;-86
2022/09/28 04:11:59;;;;;;;14.52;10.55;;;12.80;99.90;;;;;;5067897;28;20222;-88
2022/09/28 04:14:53;;;;;;;12.10;10.05;;;12.70;99.90;;;;;;5082241;28;20227;-86
2022/09/28 04:17:42;;;;;;;11.95;10.73;;;12.70;99.90;;;;;;5084521;28;20239;-85
2022/09/28 04:20:44;;;;;;;15.73;13.10;;;12.70;99.90;;;;;;5085270;28;20605;-90
2022/09/28 04:23:35;;;;;;;15.20;13.60;;;12.60;99.90;;;;;;5072218;28;20223;-88
2022/09/28 04:26:26;;;;;;;16.25;14.55;;;12.60;99.90;;;;;;5085116;28;20692;-88
2022/09/28 04:29:16;;;;;;;17.52;14.27;;;12.50;99.90;;;;;;5066859;28;20220;-87
2022/09/28 04:32:12;;;;;;;19.95;14.75;;;12.60;99.90;;;;;;5066953;28;20231;-87
2022/09/28 04:35:01;;;;;;;21.45;15.98;;;12.60;99.90;;;;;;5074548;28;20366;-88
2022/09/28 04:37:51;;;;;;;19.90;15.82;;;12.50;99.90;;;;;;5082870;28;20254;-87
2022/09/28 04:40:39;;;;;;;17.48;14.88;;;12.60;99.90;;;;;;5085307;28;20575;-87
2022/09/28 04:43:28;;;;;;;19.20;15.88;;;12.60;99.90;;;;;;5084136;28;20227;-86
2022/09/28 04:46:17;;;;;;;18.67;16.63;;;12.50;99.90;;;;;;5096452;28;20227;-87
2022/09/28 04:49:38;;;;;;;18.35;16.33;;;12.50;99.90;;;;;;5089413;28;20226;-87
2022/09/28 04:52:28;;;;;;;18.88;16.42;;;12.50;99.90;;;;;;5064879;28;20220;-87
2022/09/28 04:55:19;;;;;;;20.02;16.60;;;12.50;99.90;;;;;;5080526;28;20224;-88
2022/09/28 04:58:07;;;;;;;19.90;16.00;;;12.50;99.90;;;;;;5078716;28;20245;-87
2022/09/28 05:00:59;;;;;;;21.95;16.63;;;12.50;99.90;;;;;;5065294;28;20959;-87
2022/09/28 05:04:16;;;;;;;21.77;15.75;;;12.50;99.90;;;;;;5068966;28;20232;-86
2022/09/28 05:07:45;;;;;;;20.95;16.60;;;12.50;99.90;;;;;;5068692;28;20251;-87
2022/09/28 05:10:35;;;;;;;18.98;16.73;;;12.50;99.90;;;;;;5078660;28;20631;-89
2022/09/28 05:13:25;;;;;;;18.45;16.45;;;12.40;99.90;;;;;;5083265;28;20231;-88
2022/09/28 05:16:15;;;;;;;21.83;17.13;;;12.50;99.90;;;;;;5065100;28;20227;-89
2022/09/28 05:19:30;;;;;;;18.52;16.48;;;12.60;99.90;;;;;;5061918;28;20251;-86
2022/09/28 05:22:22;;;;;;;21.15;16.35;;;12.40;99.90;;;;;;5067080;28;20247;-87
2022/09/28 05:25:11;;;;;;;18.40;15.65;;;12.40;99.90;;;;;;5066471;28;20231;-88
2022/09/28 05:28:26;;;;;;;19.58;16.08;;;12.40;99.90;;;;;;5076799;28;20220;-87
2022/09/28 05:31:41;;;;;;;20.67;15.93;;;12.50;99.90;;;;;;5041039;28;20227;-80
2022/09/28 05:34:38;;;;;;;16.15;13.60;;;12.50;99.90;;;;;;5058941;28;20309;-80
2022/09/28 05:37:26;;;;;;;15.15;13.20;;;12.30;99.90;;;;;;5058401;28;20250;-80
2022/09/28 05:40:15;;;;;;;15.65;13.15;;;12.30;99.90;;;;;;5059752;28;20384;-80
2022/09/28 05:43:04;;;;;;;21.10;13.55;;;12.20;99.90;;;;;;5059034;28;20599;-84
2022/09/28 05:45:54;;;;;;;17.70;13.93;;;12.30;99.90;;;;;;5062092;28;20228;-80
2022/09/28 05:48:43;;;;;;;16.60;14.02;;;12.20;99.90;;;;;;5059057;28;20228;-80
2022/09/28 05:51:32;;;;;;;14.70;13.10;;;12.30;99.90;;;;;;5073056;28;20390;-81
2022/09/28 05:54:20;;;;;;;17.65;14.25;;;12.30;99.90;;;;;;5059686;28;20362;-83
2022/09/28 05:57:10;;;;;;;17.27;14.75;;;12.40;99.90;;;;;;5060422;28;20765;-82
2022/09/28 05:59:59;;;;;;;18.10;13.95;;;12.40;99.90;;;;;;5057956;28;20223;-84
2022/09/28 06:03:00;;;;;;;17.67;14.43;;;12.50;99.90;;;;;;5057242;28;20220;-85
2022/09/28 06:05:55;;;;;;;16.25;14.20;;;12.60;99.90;;;;;;5057290;28;20717;-82
2022/09/28 06:08:45;;;;;;;18.85;15.25;;;12.50;99.90;;;;;;5058255;28;20220;-82
2022/09/28 06:11:52;;;;;;;16.92;13.80;;;12.50;99.90;;;;;;5055450;28;20277;-83
2022/09/28 06:14:44;;;;;;;20.52;14.05;;;12.50;99.90;;;;;;5073729;28;20314;-82
2022/09/28 06:17:33;;;;;;;19.98;14.52;;;12.50;99.90;;;;;;5056614;28;20224;-83
2022/09/28 06:20:43;;;;;;;23.38;18.98;;;12.60;99.90;;;;;;5061231;28;20523;-83
2022/09/28 06:23:36;;;;;;;19.23;17.02;;;12.60;99.90;;;;;;5059464;28;20270;-82
2022/09/28 06:26:26;;;;;;;20.80;15.95;;;12.50;99.90;;;;;;5067595;28;20288;-83
2022/09/28 06:29:18;;;;;;;16.83;14.10;;;12.50;99.90;;;;;;5061687;28;20305;-83
2022/09/28 06:32:07;;;;;;;18.63;14.32;;;12.40;99.90;;;;;;5073478;28;20224;-83
2022/09/28 06:34:58;;;;;;;17.30;14.55;;;12.50;99.90;;;;;;5059690;28;20328;-83
2022/09/28 06:37:50;;;;;;;17.35;14.60;;;12.50;99.90;;;;;;5038591;28;20235;-83
2022/09/28 06:40:39;;;;;;;17.40;14.90;;;12.50;99.90;;;;;;5053294;28;20220;-84
2022/09/28 06:43:28;;;;;;;20.35;15.88;;;12.50;99.90;;;;;;5055260;28;20266;-87
2022/09/28 06:46:36;;;;;;;20.15;14.13;;;12.60;99.90;;;;;;5060957;28;20637;-84
2022/09/28 06:49:50;;;;;;;16.48;14.30;;;12.80;99.90;;;;;;5057696;28;20266;-82
2022/09/28 06:52:52;;;;;;;20.45;13.80;;;13.00;99.90;;;;;;5056969;28;20216;-84
2022/09/28 06:56:09;;;;;;;15.80;13.52;;;13.00;99.90;;;;;;5067436;28;20220;-84
2022/09/28 06:58:57;;;;;;;15.45;13.40;;;13.10;99.90;;;;;;5065162;28;20232;-80
2022/09/28 07:01:46;;;;;;;26.10;20.67;;;13.10;99.90;;;;;;5066191;28;20234;-79
2022/09/28 07:05:01;;;;;;;15.63;13.52;;;13.10;99.90;;;;;;5058346;28;20232;-82
2022/09/28 07:08:14;;;;;;;16.95;13.13;;;13.10;99.90;;;;;;5054315;28;20226;-82
2022/09/28 07:11:25;;;;;;;14.85;13.18;;;13.00;99.90;;;;;;5057381;28;20224;-82
2022/09/28 07:14:33;;;;;;;18.88;11.85;;;13.00;99.90;;;;;;5053872;28;20223;-84
2022/09/28 07:17:36;;;;;;;13.90;11.75;;;13.00;99.90;;;;;;5067498;28;20230;-85
2022/09/28 07:20:42;;;;;;;19.77;15.95;;;13.10;99.90;;;;;;5056814;28;20212;-80
2022/09/28 07:23:42;;;;;;;16.30;12.75;;;13.20;99.90;;;;;;5068689;28;20322;-80
2022/09/28 07:26:45;;;;;;;17.15;13.75;;;13.20;99.90;;;;;;5054629;28;20602;-82
2022/09/28 07:29:57;;;;;;;16.00;12.52;;;13.30;99.90;;;;;;5055373;28;20373;-81
2022/09/28 07:33:01;;;;;;;15.70;11.60;;;13.30;99.90;;;;;;5063668;28;20333;-81
2022/09/28 07:36:05;;;;;;;14.18;12.00;;;13.30;99.90;;;;;;5055455;28;20338;-82
2022/09/28 07:38:56;;;;;;;13.20;11.32;;;13.40;99.90;;;;;;5076741;28;20224;-91
2022/09/28 07:41:45;;;;;;;15.45;12.27;;;13.50;99.90;;;;;;5064041;28;20224;-91
2022/09/28 07:44:39;;;;;;;11.52;10.30;;;13.60;99.90;;;;;;5069744;28;20668;-83
2022/09/28 07:47:28;;;;;;;13.88;11.98;;;13.80;99.90;;;;;;5051085;28;20251;-82
2022/09/28 07:50:40;;;;;;;12.38;11.07;;;13.80;99.90;;;;;;5064273;28;20559;-89
2022/09/28 07:53:47;;;;;;;13.13;9.95;;;13.80;99.90;;;;;;5082028;28;20219;-93
2022/09/28 07:56:57;;;;;;;12.07;8.88;;;14.30;99.90;;;;;;5062858;28;20580;-85
2022/09/28 07:59:56;;;;;;;10.77;9.07;;;14.40;99.90;;;;;;5075012;28;20231;-87
2022/09/28 08:02:47;;;;;;;12.02;8.65;;;15.10;99.90;;;;;;5082308;28;20223;-87
2022/09/28 08:05:41;;;;;;;11.52;7.97;;;15.10;99.90;;;;;;5083284;28;20314;-88
2022/09/28 08:08:30;;;;;;;9.85;8.38;;;14.90;99.90;;;;;;5068263;28;20215;-89
2022/09/28 08:11:19;;;;;;;10.02;8.80;;;14.60;99.90;;;;;;5086655;28;20716;-86
2022/09/28 08:14:36;;;;;;;12.38;9.52;;;14.40;99.90;;;;;;5074335;28;20220;-92
2022/09/28 08:17:36;;;;;;;11.25;9.35;;;14.30;99.90;;;;;;5078461;28;20219;-83
2022/09/28 08:23:38;;;;;;;11.07;9.98;;;13.90;99.90;;;;;;5075229;28;20219;-88
2022/09/28 08:26:27;;;;;;;11.20;10.07;;;14.20;99.90;;;;;;5090534;28;20301;-88
2022/09/28 08:29:16;;;;;;;12.27;11.00;;;14.40;99.90;;;;;;5093558;28;20254;-93
2022/09/28 08:32:09;;;;;;;12.32;10.57;;;14.50;99.90;;;;;;5093683;28;20223;-92
2022/09/28 08:35:27;;;;;;;15.73;10.00;;;14.60;99.90;;;;;;5090538;28;20312;-90
2022/09/28 08:38:33;;;;;;;12.63;10.10;;;14.60;99.90;;;;;;5090793;28;20215;-94
2022/09/28 08:42:05;;;;;;;12.02;8.70;;;14.90;99.90;;;;;;5082851;28;20247;-88
2022/09/28 08:45:13;;;;;;;10.25;9.20;;;15.30;99.90;;;;;;5094322;28;20298;-92
2022/09/28 08:52:06;;;;;;;7.95;6.78;;;15.80;99.90;;;;;;5092733;28;20219;-92
2022/09/28 08:55:17;;;;;;;10.48;7.00;;;15.40;99.90;;;;;;5096019;28;20230;-93
2022/09/28 08:58:12;;;;;;;8.05;6.22;;;15.30;99.90;;;;;;5085460;28;20306;-88
2022/09/28 09:01:06;;;;;;;11.02;6.82;;;15.40;99.90;;;;;;5073309;28;20219;-90
2022/09/28 09:03:57;;;;;;;93.22;12.52;;;15.20;99.90;;;;;;5075755;28;20220;-87
2022/09/28 09:07:17;;;;;;;9.55;7.60;;;15.20;99.90;;;;;;5076336;28;20223;-92
2022/09/28 09:10:38;;;;;;;12.38;7.03;;;15.30;99.90;;;;;;5087118;28;20223;-92
2022/09/28 09:13:48;;;;;;;8.23;6.32;;;15.30;99.90;;;;;;5088824;28;20239;-92
2022/09/28 09:16:50;;;;;;;6.90;6.18;;;15.20;99.90;;;;;;5070500;28;20599;-92
2022/09/28 09:20:16;;;;;;;36.53;28.33;;;15.00;99.90;;;;;;5091187;28;20586;-95
2022/09/28 09:23:19;;;;;;;11.85;7.55;;;15.30;99.90;;;;;;5084945;28;20704;-83
2022/09/28 09:26:16;;;;;;;7.47;6.20;;;15.20;99.90;;;;;;5069707;28;20257;-87
2022/09/28 09:29:26;;;;;;;7.72;6.20;;;15.50;99.90;;;;;;5083278;28;21136;-90
2022/09/28 09:32:34;;;;;;;7.43;5.90;;;15.60;99.90;;;;;;5088268;28;20227;-90
2022/09/28 09:35:47;;;;;;;5.60;5.10;;;15.50;99.90;;;;;;5076082;28;20228;-89
2022/09/28 09:38:54;;;;;;;5.80;5.20;;;15.40;99.90;;;;;;5085601;28;20584;-87
2022/09/28 09:42:15;;;;;;;5.82;4.90;;;15.40;99.90;;;;;;5083820;28;20223;-87
2022/09/28 09:46:02;;;;;;;6.68;4.90;;;15.50;99.90;;;;;;4995980;28;20694;-88
2022/09/28 09:49:24;;;;;;;7.10;4.93;;;15.50;99.90;;;;;;5002854;28;20213;-89
2022/09/28 09:52:22;;;;;;;9.63;4.70;;;15.40;99.90;;;;;;5073506;28;20991;-87
2022/09/28 09:55:16;;;;;;;6.13;4.03;;;15.70;99.90;;;;;;5076799;28;20841;-88
2022/09/28 09:58:20;;;;;;;5.03;4.00;;;15.80;99.90;;;;;;5089542;28;20284;-88
2022/09/28 10:01:19;;;;;;;5.43;4.18;;;15.60;99.90;;;;;;5075227;28;20356;-91
2022/09/28 10:04:30;;;;;;;6.30;4.25;;;15.40;99.90;;;;;;5090796;28;20356;-87
2022/09/28 10:07:29;;;;;;;6.70;4.75;;;15.30;99.90;;;;;;5068979;28;20729;-87
2022/09/28 10:10:22;;;;;;;6.28;5.68;;;15.40;99.90;;;;;;5070793;28;20361;-87
2022/09/28 10:13:13;;;;;;;8.10;4.40;;;15.50;99.90;;;;;;5069604;28;20215;-87
2022/09/28 10:16:05;;;;;;;4.80;3.50;;;15.70;99.90;;;;;;5082836;28;20237;-86
2022/09/28 10:19:00;;;;;;;6.30;3.30;;;15.90;99.90;;;;;;5065393;28;20226;-85
2022/09/28 10:22:09;;;;;;;5.35;3.05;;;15.60;99.90;;;;;;5081733;28;20731;-88
2022/09/28 10:25:00;;;;;;;4.15;3.10;;;15.50;99.90;;;;;;5079380;28;20230;-85
2022/09/28 10:27:51;;;;;;;5.00;3.35;;;15.60;99.90;;;;;;5084581;28;20223;-86
2022/09/28 10:30:43;;;;;;;6.03;3.10;;;15.70;99.90;;;;;;5071964;28;20965;-87
2022/09/28 10:33:34;;;;;;;3.97;3.05;;;15.90;99.90;;;;;;5075754;28;20219;-86
2022/09/28 10:36:25;;;;;;;6.45;2.75;;;15.80;99.90;;;;;;5084387;28;20216;-87
2022/09/28 10:39:27;;;;;;;5.85;2.70;;;15.90;99.90;;;;;;5085422;28;20219;-86
2022/09/28 10:42:25;;;;;;;4.65;2.90;;;16.20;99.90;;;;;;5069485;28;20230;-87
2022/09/28 10:45:21;;;;;;;5.13;3.05;;;15.90;99.90;;;;;;5068948;28;20220;-90
2022/09/28 10:48:17;;;;;;;5.85;3.47;;;15.90;99.90;;;;;;5092359;28;20238;-91
2022/09/28 10:51:07;;;;;;;4.18;3.08;;;16.00;99.90;;;;;;5090516;28;20224;-94
2022/09/28 10:54:00;;;;;;;3.60;2.60;;;16.20;99.90;;;;;;5077982;28;20707;-92
2022/09/28 10:57:28;;;;;;;7.50;4.25;;;16.10;99.90;;;;;;5076819;28;20302;-90
2022/09/28 11:00:34;;;;;;;4.85;2.33;;;15.90;99.90;;;;;;5079942;28;20304;-84
2022/09/28 11:03:50;;;;;;;4.25;2.90;;;16.00;99.90;;;;;;5074901;28;20262;-86
2022/09/28 11:06:40;;;;;;;4.35;2.20;;;16.00;99.90;;;;;;5062741;28;20216;-83
2022/09/28 11:09:33;;;;;;;7.85;2.45;;;16.00;99.90;;;;;;5077384;28;20613;-82
2022/09/28 11:12:32;;;;;;;4.28;2.25;;;16.00;99.90;;;;;;5073497;28;20224;-83
2022/09/28 11:15:24;;;;;;;3.30;2.45;;;16.30;99.90;;;;;;5070954;28;20228;-88
2022/09/28 11:18:25;;;;;;;5.80;2.50;;;16.30;99.90;;;;;;5084856;28;20230;-90
2022/09/28 11:21:15;;;;;;;4.57;3.00;;;16.30;99.90;;;;;;5070810;28;20232;-86
2022/09/28 11:24:20;;;;;;;5.82;2.78;;;16.30;99.90;;;;;;5073643;28;20306;-93
2022/09/28 11:27:20;;;;;;;2.90;2.58;;;16.50;99.90;;;;;;5085045;28;20227;-90
2022/09/28 11:30:23;;;;;;;8.73;3.30;;;16.60;99.90;;;;;;5073319;28;20223;-90
2022/09/28 11:33:42;;;;;;;4.97;3.30;;;16.30;99.90;;;;;;5082572;28;20219;-93
2022/09/28 11:37:12;;;;;;;6.43;3.45;;;16.10;99.90;;;;;;5084906;28;20223;-89
2022/09/28 11:40:14;;;;;;;4.55;2.90;;;16.10;99.90;;;;;;5097916;28;20288;-91
2022/09/28 11:43:13;;;;;;;5.30;2.78;;;15.90;99.90;;;;;;5099918;28;20539;-89
2022/09/28 11:46:13;;;;;;;3.38;2.70;;;15.90;99.90;;;;;;5087380;28;20277;-90
2022/09/28 11:49:11;;;;;;;4.28;2.50;;;15.90;99.90;;;;;;5075114;28;20385;-90
2022/09/28 11:52:05;;;;;;;6.38;2.20;;;15.80;99.90;;;;;;5089117;28;20318;-90
2022/09/28 11:54:59;;;;;;;2.70;1.60;;;15.70;99.90;;;;;;5072102;28;20826;-92
2022/09/28 11:57:54;;;;;;;2.85;1.58;;;15.60;99.90;;;;;;5083630;28;20245;-91
2022/09/28 12:00:50;;;;;;;2.30;1.83;;;15.60;99.90;;;;;;5091386;28;20733;-89
2022/09/28 12:03:50;;;;;;;3.25;2.10;;;15.50;99.90;;;;;;5068632;28;20223;-88
2022/09/28 12:06:45;;;;;;;3.13;1.67;;;15.80;99.90;;;;;;5084157;28;20230;-89
2022/09/28 12:09:42;;;;;;;5.45;2.08;;;16.00;99.90;;;;;;5069886;28;20219;-88
2022/09/28 12:12:46;;;;;;;2.13;1.60;;;16.10;99.90;;;;;;5071238;28;20223;-90
2022/09/28 12:15:43;;;;;;;2.55;1.73;;;16.10;99.90;;;;;;5085998;28;20225;-89
2022/09/28 12:18:59;;;;;;;3.05;1.60;;;16.20;99.90;;;;;;5088354;28;20260;-89
2022/09/28 12:21:56;;;;;;;4.22;1.88;;;16.20;99.90;;;;;;5087059;28;20231;-89
2022/09/28 12:24:48;;;;;;;6.10;2.00;;;16.20;99.90;;;;;;5083063;28;20284;-89
2022/09/28 12:27:42;;;;;;;3.10;2.20;;;16.10;99.90;;;;;;5083946;28;20297;-85
2022/09/28 12:30:36;;;;;;;3.85;1.80;;;16.10;99.90;;;;;;5085243;28;20288;-89
2022/09/28 12:33:24;;;;;;;3.58;2.03;;;16.10;99.90;;;;;;5084409;28;20273;-90
2022/09/28 12:36:27;;;;;;;3.55;2.00;;;15.90;99.90;;;;;;5084911;28;20287;-92
2022/09/28 12:39:34;;;;;;;5.68;2.35;;;16.00;99.90;;;;;;5087575;28;20438;-88
2022/09/28 12:43:02;;;;;;;4.20;2.30;;;16.00;99.90;;;;;;5070222;28;20709;-88
2022/09/28 12:46:22;;;;;;;4.80;2.03;;;16.00;99.90;;;;;;5062164;28;20251;-89
2022/09/28 12:49:33;;;;;;;5.75;2.10;;;15.90;99.90;;;;;;5048710;28;20235;-89
2022/09/28 12:52:55;;;;;;;2.05;1.85;;;15.90;99.90;;;;;;5072923;28;22234;-88
2022/09/28 12:55:56;;;;;;;3.28;2.03;;;15.80;99.90;;;;;;5083670;28;20215;-88
2022/09/28 12:59:00;;;;;;;4.03;2.38;;;15.70;99.90;;;;;;5087284;28;20330;-88
2022/09/28 13:02:21;;;;;;;4.50;2.35;;;15.60;99.90;;;;;;5075105;28;20215;-88
2022/09/28 13:05:23;;;;;;;3.75;2.47;;;15.60;99.90;;;;;;5088288;28;21798;-88
2022/09/28 13:08:21;;;;;;;3.72;2.50;;;15.70;99.90;;;;;;5075986;28;20311;-88
2022/09/28 13:11:25;;;;;;;4.07;2.20;;;15.80;99.90;;;;;;5076032;28;20220;-89
2022/09/28 13:14:47;;;;;;;3.25;2.65;;;15.80;99.90;;;;;;5072251;28;20585;-89
2022/09/28 13:17:45;;;;;;;3.83;2.70;;;15.70;99.90;;;;;;5089981;28;20215;-90
2022/09/28 13:21:04;;;;;;;9.50;3.13;;;15.70;99.90;;;;;;5073340;28;20215;-89
2022/09/28 13:23:58;;;;;;;2.35;2.15;;;15.70;99.90;;;;;;5087361;28;20332;-89
2022/09/28 13:27:14;;;;;;;3.05;2.20;;;15.60;99.90;;;;;;5077877;28;20219;-90
2022/09/28 13:30:06;;;;;;;4.05;1.85;;;15.60;99.90;;;;;;5089895;28;20232;-90
2022/09/28 13:32:57;;;;;;;4.25;2.13;;;15.50;99.90;;;;;;5077572;28;20605;-87
2022/09/28 13:35:46;;;;;;;3.58;2.33;;;15.50;99.90;;;;;;5077170;28;20227;-89
2022/09/28 13:38:50;;;;;;;3.28;2.20;;;15.50;99.90;;;;;;5075322;28;20228;-89
2022/09/28 13:41:49;;;;;;;3.03;2.53;;;15.50;99.90;;;;;;5085214;28;20393;-87
2022/09/28 13:45:08;;;;;;;5.25;1.95;;;15.50;99.90;;;;;;5089615;28;20289;-90
2022/09/28 13:48:15;;;;;;;2.25;1.70;;;15.40;99.90;;;;;;5097477;28;20628;-88
2022/09/28 13:51:16;;;;;;;1.65;1.33;;;15.30;99.90;;;;;;5070081;28;20223;-89
2022/09/28 13:54:23;;;;;;;3.80;1.70;;;15.30;99.90;;;;;;5085994;28;20219;-87
2022/09/28 13:57:20;;;;;;;2.38;1.60;;;15.30;99.90;;;;;;5086591;28;20218;-89
2022/09/28 14:00:17;;;;;;;2.30;1.88;;;15.20;99.90;;;;;;5084602;28;20304;-88
2022/09/28 14:03:23;;;;;;;1.83;1.70;;;15.20;99.90;;;;;;5085290;28;20223;-90
2022/09/28 14:06:26;;;;;;;2.67;1.58;;;15.30;99.90;;;;;;5087263;28;20331;-88
2022/09/28 14:09:44;;;;;;;2.53;1.70;;;15.20;99.90;;;;;;5072636;28;20227;-89
2022/09/28 14:12:47;;;;;;;3.45;1.90;;;15.30;99.90;;;;;;5050225;28;20212;-91
2022/09/28 14:15:46;;;;;;;2.55;1.77;;;15.20;99.90;;;;;;5092680;28;20223;-93
2022/09/28 14:18:36;;;;;;;5.28;2.13;;;15.20;99.90;;;;;;5091069;28;20204;-92
2022/09/28 14:21:53;;;;;;;4.88;1.70;;;15.20;99.90;;;;;;5091816;28;20269;-91
2022/09/28 14:25:03;;;;;;;5.10;1.80;;;15.20;99.90;;;;;;5077125;28;20234;-91
2022/09/28 14:28:18;;;;;;;4.78;2.17;;;15.20;99.90;;;;;;5091215;28;20661;-91
2022/09/28 14:31:12;;;;;;;2.05;1.60;;;15.20;99.90;;;;;;5088141;28;20275;-91
2022/09/28 14:34:03;;;;;;;3.28;2.00;;;15.30;99.90;;;;;;5090707;28;20233;-96
2022/09/28 14:43:26;;;;;;;8.27;2.40;;;15.50;99.90;;;;;;5008990;28;20214;-93
2022/09/28 14:46:29;;;;;;;3.65;2.38;;;15.60;99.90;;;;;;4993878;28;20296;-82
2022/09/28 14:49:44;;;;;;;4.45;2.00;;;15.50;99.90;;;;;;5076587;28;20242;-84
2022/09/28 14:52:45;;;;;;;5.05;2.35;;;15.50;99.90;;;;;;5073367;28;21204;-89
2022/09/28 14:55:40;;;;;;;4.10;2.58;;;15.50;99.90;;;;;;5085108;28;20224;-83
2022/09/28 14:58:32;;;;;;;7.88;3.22;;;15.50;99.90;;;;;;5079119;28;20224;-85
2022/09/28 15:01:23;;;;;;;7.22;2.83;;;15.50;99.90;;;;;;5081781;28;20716;-91
2022/09/28 15:04:13;;;;;;;5.97;2.63;;;15.50;99.90;;;;;;5079922;28;20223;-83
2022/09/28 15:07:02;;;;;;;17.92;5.60;;;15.40;99.90;;;;;;5078962;28;20671;-89
2022/09/28 15:09:53;;;;;;;4.30;3.08;;;15.40;99.90;;;;;;5069194;28;20228;-90
2022/09/28 15:12:46;;;;;;;5.70;2.92;;;15.40;99.90;;;;;;5081038;28;20284;-84
2022/09/28 15:15:37;;;;;;;5.05;2.85;;;15.40;99.90;;;;;;5079461;28;20618;-83
2022/09/28 15:18:54;;;;;;;11.80;3.40;;;15.40;99.90;;;;;;5078682;28;20223;-93
2022/09/28 15:21:46;;;;;;;11.02;3.10;;;15.40;99.90;;;;;;5091003;28;20322;-91
2022/09/28 15:24:34;;;;;;;8.45;2.90;;;15.40;99.90;;;;;;5089315;28;20218;-90
2022/09/28 15:27:23;;;;;;;4.07;2.53;;;15.30;99.90;;;;;;5089433;28;20723;-88
2022/09/28 15:30:22;;;;;;;8.30;2.70;;;15.30;99.90;;;;;;5094500;28;20310;-93
2022/09/28 15:36:35;;;;;;;3.47;2.60;;;15.30;99.90;;;;;;5086249;28;20219;-90
2022/09/28 15:39:29;;;;;;;6.43;3.03;;;15.20;99.90;;;;;;5098418;28;20239;-95